HAZ2610 ZPPP-ZSHC
Flight info
| Callsign | HAZ2610 |
|---|---|
| Flight time | 2h 43m |
| Altitude | 37100 |
| Route | NODIB4Q NODIB W137 LPS A581 IDGAG W80 XSH DCT JDZ DCT TXN G204 OREXA OREXA62 |
| Aircraft | A20N/M-SDE2E3FGHIRWXY/LB1 |
Departure
| Time | 2026-05-04 12:55 |
|---|---|
| Airport | Kunming Changshui International Airport (ZPPP) |
Arrival
| Time | 2026-05-04 15:39 |
|---|---|
| Airport | Hangzhou Xiaoshan International Airport (ZSHC) |
| Time | Latitude | Longitude | Altitude | Speed | Heading |
|---|---|---|---|---|---|
| 2026-05-04 12:16 | 25.10673 | 102.92801 | 6909 ft | 0 kts | 91° |
| 2026-05-04 12:31 | 25.10673 | 102.92786 | 6909 ft | 2 kts | 90° |
| 2026-05-04 12:31 | 25.10673 | 102.92770 | 6909 ft | 2 kts | 91° |
| 2026-05-04 12:32 | 25.10674 | 102.92754 | 6909 ft | 2 kts | 91° |
| 2026-05-04 12:32 | 25.10674 | 102.92724 | 6909 ft | 0 kts | 91° |
| 2026-05-04 12:32 | 25.10674 | 102.92709 | 6909 ft | 2 kts | 80° |
| 2026-05-04 12:33 | 25.10670 | 102.92693 | 6909 ft | 2 kts | 70° |
| 2026-05-04 12:33 | 25.10664 | 102.92678 | 6909 ft | 2 kts | 58° |
| 2026-05-04 12:33 | 25.10655 | 102.92665 | 6909 ft | 2 kts | 47° |
| 2026-05-04 12:33 | 25.10648 | 102.92657 | 6909 ft | 0 kts | 40° |
| 2026-05-04 12:34 | 25.10644 | 102.92654 | 6909 ft | 0 kts | 38° |
| 2026-05-04 12:35 | 25.10646 | 102.92656 | 6909 ft | 1 kts | 38° |
| 2026-05-04 12:35 | 25.10655 | 102.92664 | 6909 ft | 2 kts | 38° |
| 2026-05-04 12:35 | 25.10670 | 102.92677 | 6909 ft | 3 kts | 38° |
| 2026-05-04 12:36 | 25.10692 | 102.92693 | 6909 ft | 3 kts | 25° |
| 2026-05-04 12:36 | 25.10712 | 102.92683 | 6909 ft | 4 kts | 306° |
| 2026-05-04 12:36 | 25.10731 | 102.92654 | 6909 ft | 5 kts | 306° |
| 2026-05-04 12:36 | 25.10754 | 102.92620 | 6909 ft | 5 kts | 306° |
| 2026-05-04 12:37 | 25.10780 | 102.92580 | 6909 ft | 6 kts | 306° |
| 2026-05-04 12:37 | 25.10809 | 102.92538 | 6909 ft | 7 kts | 307° |
| 2026-05-04 12:37 | 25.10850 | 102.92506 | 6909 ft | 7 kts | 359° |
| 2026-05-04 12:37 | 25.10897 | 102.92535 | 6909 ft | 8 kts | 40° |
| 2026-05-04 12:38 | 25.10943 | 102.92580 | 6909 ft | 9 kts | 49° |
| 2026-05-04 12:38 | 25.10983 | 102.92638 | 6909 ft | 9 kts | 45° |
| 2026-05-04 12:38 | 25.11041 | 102.92680 | 6909 ft | 10 kts | 26° |
| 2026-05-04 12:38 | 25.11108 | 102.92718 | 6909 ft | 11 kts | 31° |
| 2026-05-04 12:39 | 25.11173 | 102.92770 | 6909 ft | 11 kts | 39° |
| 2026-05-04 12:39 | 25.11237 | 102.92828 | 6909 ft | 12 kts | 39° |
| 2026-05-04 12:39 | 25.11305 | 102.92889 | 6909 ft | 12 kts | 39° |
| 2026-05-04 12:39 | 25.11375 | 102.92950 | 6909 ft | 13 kts | 39° |
| 2026-05-04 12:40 | 25.11449 | 102.93015 | 6909 ft | 13 kts | 38° |
| 2026-05-04 12:40 | 25.11524 | 102.93081 | 6909 ft | 13 kts | 38° |
| 2026-05-04 12:40 | 25.11602 | 102.93148 | 6909 ft | 14 kts | 38° |
| 2026-05-04 12:40 | 25.11681 | 102.93215 | 6909 ft | 14 kts | 38° |
| 2026-05-04 12:41 | 25.11761 | 102.93285 | 6909 ft | 14 kts | 39° |
| 2026-05-04 12:41 | 25.11841 | 102.93356 | 6909 ft | 14 kts | 38° |
| 2026-05-04 12:41 | 25.11924 | 102.93426 | 6909 ft | 15 kts | 38° |
| 2026-05-04 12:41 | 25.12007 | 102.93497 | 6909 ft | 15 kts | 38° |
| 2026-05-04 12:42 | 25.12091 | 102.93571 | 6909 ft | 15 kts | 38° |
| 2026-05-04 12:42 | 25.12175 | 102.93643 | 6909 ft | 15 kts | 38° |
| 2026-05-04 12:42 | 25.12259 | 102.93716 | 6909 ft | 15 kts | 38° |
| 2026-05-04 12:42 | 25.12345 | 102.93790 | 6909 ft | 15 kts | 38° |
| 2026-05-04 12:43 | 25.12430 | 102.93865 | 6909 ft | 15 kts | 40° |
| 2026-05-04 12:43 | 25.12515 | 102.93941 | 6909 ft | 15 kts | 38° |
| 2026-05-04 12:43 | 25.12549 | 102.93971 | 6909 ft | 0 kts | 38° |
| 2026-05-04 12:44 | 25.12551 | 102.93973 | 6909 ft | 1 kts | 38° |
| 2026-05-04 12:44 | 25.12560 | 102.93980 | 6909 ft | 2 kts | 38° |
| 2026-05-04 12:44 | 25.12575 | 102.93993 | 6909 ft | 3 kts | 38° |
| 2026-05-04 12:44 | 25.12596 | 102.94011 | 6909 ft | 4 kts | 38° |
| 2026-05-04 12:45 | 25.12600 | 102.94015 | 6909 ft | 0 kts | 38° |
| 2026-05-04 12:46 | 25.12601 | 102.94016 | 6909 ft | 0 kts | 38° |
| 2026-05-04 12:47 | 25.12606 | 102.94020 | 6909 ft | 1 kts | 38° |
| 2026-05-04 12:47 | 25.12618 | 102.94030 | 6909 ft | 2 kts | 38° |
| 2026-05-04 12:47 | 25.12636 | 102.94045 | 6909 ft | 3 kts | 38° |
| 2026-05-04 12:47 | 25.12659 | 102.94066 | 6909 ft | 4 kts | 38° |
| 2026-05-04 12:48 | 25.12688 | 102.94091 | 6909 ft | 5 kts | 38° |
| 2026-05-04 12:48 | 25.12707 | 102.94107 | 6909 ft | 0 kts | 38° |
| 2026-05-04 12:49 | 25.12708 | 102.94108 | 6909 ft | 0 kts | 38° |
| 2026-05-04 12:50 | 25.12715 | 102.94114 | 6909 ft | 1 kts | 38° |
| 2026-05-04 12:50 | 25.12728 | 102.94125 | 6909 ft | 2 kts | 38° |
| 2026-05-04 12:50 | 25.12746 | 102.94141 | 6909 ft | 3 kts | 38° |
| 2026-05-04 12:50 | 25.12771 | 102.94162 | 6909 ft | 4 kts | 38° |
| 2026-05-04 12:51 | 25.12801 | 102.94188 | 6909 ft | 5 kts | 38° |
| 2026-05-04 12:51 | 25.12836 | 102.94218 | 6909 ft | 6 kts | 38° |
| 2026-05-04 12:51 | 25.12877 | 102.94254 | 6909 ft | 7 kts | 38° |
| 2026-05-04 12:51 | 25.12923 | 102.94293 | 6909 ft | 8 kts | 37° |
| 2026-05-04 12:52 | 25.12949 | 102.94291 | 6909 ft | 4 kts | 316° |
| 2026-05-04 12:52 | 25.12970 | 102.94264 | 6908 ft | 5 kts | 309° |
| 2026-05-04 12:52 | 25.12980 | 102.94250 | 6909 ft | 0 kts | 309° |
| 2026-05-04 12:52 | 25.12981 | 102.94250 | 6909 ft | 0 kts | 309° |
| 2026-05-04 12:53 | 25.12986 | 102.94243 | 6909 ft | 1 kts | 309° |
| 2026-05-04 12:53 | 25.12995 | 102.94231 | 6909 ft | 2 kts | 309° |
| 2026-05-04 12:53 | 25.13009 | 102.94212 | 6909 ft | 3 kts | 309° |
| 2026-05-04 12:53 | 25.13027 | 102.94188 | 6908 ft | 4 kts | 309° |
| 2026-05-04 12:54 | 25.13031 | 102.94157 | 6909 ft | 4 kts | 238° |
| 2026-05-04 12:54 | 25.13001 | 102.94134 | 6909 ft | 5 kts | 217° |
| 2026-05-04 12:54 | 25.12969 | 102.94106 | 6909 ft | 6 kts | 219° |
| 2026-05-04 12:54 | 25.12810 | 102.93967 | 6909 ft | 64 kts | 218° |
| 2026-05-04 12:55 | 25.12279 | 102.93505 | 6909 ft | 127 kts | 221° |
| 2026-05-04 12:55 | 25.11435 | 102.92767 | 6924 ft | 177 kts | 218° |
| 2026-05-04 12:55 | 25.10459 | 102.91879 | 7353 ft | 187 kts | 219° |
| 2026-05-04 12:55 | 25.09504 | 102.90910 | 8083 ft | 186 kts | 227° |
| 2026-05-04 12:56 | 25.08740 | 102.89790 | 8876 ft | 184 kts | 238° |
| 2026-05-04 12:56 | 25.08188 | 102.88486 | 9420 ft | 196 kts | 252° |
| 2026-05-04 12:56 | 25.07832 | 102.86985 | 9848 ft | 210 kts | 256° |
| 2026-05-04 12:56 | 25.07519 | 102.85327 | 10178 ft | 227 kts | 259° |
| 2026-05-04 12:57 | 25.06928 | 102.83594 | 10352 ft | 253 kts | 233° |
| 2026-05-04 12:57 | 25.05521 | 102.82315 | 10721 ft | 274 kts | 207° |
| 2026-05-04 12:57 | 25.03553 | 102.81847 | 11089 ft | 299 kts | 181° |
| 2026-05-04 12:57 | 25.01424 | 102.82383 | 11441 ft | 324 kts | 157° |
| 2026-05-04 12:58 | 24.99447 | 102.83946 | 11827 ft | 346 kts | 139° |
| 2026-05-04 12:58 | 24.97679 | 102.85944 | 12343 ft | 360 kts | 134° |
| 2026-05-04 12:58 | 24.96281 | 102.88254 | 12946 ft | 370 kts | 114° |
| 2026-05-04 12:58 | 24.95673 | 102.91087 | 13597 ft | 377 kts | 92° |
| 2026-05-04 12:59 | 24.95949 | 102.93983 | 14264 ft | 380 kts | 76° |
| 2026-05-04 12:59 | 24.96648 | 102.96828 | 14931 ft | 384 kts | 66° |
| 2026-05-04 12:59 | 24.97996 | 102.99329 | 15598 ft | 382 kts | 49° |
| 2026-05-04 12:59 | 24.99731 | 103.01730 | 16329 ft | 385 kts | 47° |
| 2026-05-04 13:00 | 25.01415 | 103.04024 | 16962 ft | 389 kts | 47° |
| 2026-05-04 13:00 | 25.03183 | 103.06433 | 17611 ft | 393 kts | 47° |
| 2026-05-04 13:00 | 25.04888 | 103.08766 | 18214 ft | 397 kts | 47° |
| 2026-05-04 13:00 | 25.06689 | 103.11237 | 18845 ft | 400 kts | 47° |
| 2026-05-04 13:01 | 25.08515 | 103.13750 | 19468 ft | 404 kts | 47° |
| 2026-05-04 13:01 | 25.10321 | 103.16238 | 20071 ft | 407 kts | 47° |
| 2026-05-04 13:01 | 25.12132 | 103.18735 | 20656 ft | 411 kts | 47° |
| 2026-05-04 13:01 | 25.13979 | 103.21286 | 21242 ft | 414 kts | 47° |
| 2026-05-04 13:02 | 25.15833 | 103.23848 | 21805 ft | 417 kts | 47° |
| 2026-05-04 13:02 | 25.17704 | 103.26436 | 22352 ft | 421 kts | 47° |
| 2026-05-04 13:02 | 25.19550 | 103.28988 | 22874 ft | 424 kts | 47° |
| 2026-05-04 13:02 | 25.21452 | 103.31623 | 23420 ft | 428 kts | 47° |
| 2026-05-04 13:03 | 25.23314 | 103.34203 | 23899 ft | 432 kts | 46° |
| 2026-05-04 13:03 | 25.25243 | 103.36877 | 24407 ft | 436 kts | 46° |
| 2026-05-04 13:03 | 25.27170 | 103.39548 | 24899 ft | 439 kts | 46° |
| 2026-05-04 13:03 | 25.29100 | 103.42226 | 25371 ft | 443 kts | 46° |
| 2026-05-04 13:04 | 25.31078 | 103.44971 | 25835 ft | 447 kts | 46° |
| 2026-05-04 13:04 | 25.33063 | 103.47727 | 26278 ft | 451 kts | 46° |
| 2026-05-04 13:04 | 25.35035 | 103.50468 | 26702 ft | 455 kts | 46° |
| 2026-05-04 13:04 | 25.37085 | 103.53320 | 27181 ft | 457 kts | 46° |
| 2026-05-04 13:05 | 25.39088 | 103.56111 | 27731 ft | 457 kts | 46° |
| 2026-05-04 13:05 | 25.41111 | 103.58931 | 28211 ft | 459 kts | 45° |
| 2026-05-04 13:05 | 25.43137 | 103.61751 | 28616 ft | 462 kts | 45° |
| 2026-05-04 13:05 | 25.45159 | 103.64567 | 28999 ft | 466 kts | 45° |
| 2026-05-04 13:06 | 25.47209 | 103.67422 | 29369 ft | 469 kts | 45° |
| 2026-05-04 13:06 | 25.49246 | 103.70265 | 29727 ft | 472 kts | 46° |
| 2026-05-04 13:06 | 25.51342 | 103.73192 | 30131 ft | 473 kts | 46° |
| 2026-05-04 13:06 | 25.53404 | 103.76075 | 30624 ft | 472 kts | 45° |
| 2026-05-04 13:07 | 25.55471 | 103.78969 | 31098 ft | 471 kts | 45° |
| 2026-05-04 13:07 | 25.57524 | 103.81842 | 31525 ft | 471 kts | 45° |
| 2026-05-04 13:07 | 25.59602 | 103.84753 | 31945 ft | 471 kts | 45° |
| 2026-05-04 13:07 | 25.61694 | 103.87684 | 32350 ft | 471 kts | 45° |
| 2026-05-04 13:08 | 25.63756 | 103.90574 | 32777 ft | 471 kts | 45° |
| 2026-05-04 13:08 | 25.65812 | 103.93459 | 33259 ft | 470 kts | 45° |
| 2026-05-04 13:08 | 25.67836 | 103.96297 | 33744 ft | 469 kts | 45° |
| 2026-05-04 13:08 | 25.69864 | 103.99147 | 34265 ft | 467 kts | 45° |
| 2026-05-04 13:09 | 25.71892 | 104.02000 | 34772 ft | 465 kts | 45° |
| 2026-05-04 13:09 | 25.73881 | 104.04799 | 35255 ft | 462 kts | 45° |
| 2026-05-04 13:09 | 25.75887 | 104.07619 | 35681 ft | 461 kts | 45° |
| 2026-05-04 13:09 | 25.77893 | 104.10443 | 36045 ft | 461 kts | 45° |
| 2026-05-04 13:10 | 25.79883 | 104.13244 | 36309 ft | 462 kts | 45° |
| 2026-05-04 13:10 | 25.81897 | 104.16080 | 36550 ft | 464 kts | 45° |
| 2026-05-04 13:10 | 25.83889 | 104.18887 | 36798 ft | 466 kts | 45° |
| 2026-05-04 13:10 | 25.85913 | 104.21745 | 37040 ft | 467 kts | 45° |
| 2026-05-04 13:11 | 25.87927 | 104.24589 | 37252 ft | 469 kts | 45° |
| 2026-05-04 13:11 | 25.89945 | 104.27443 | 37381 ft | 470 kts | 45° |
| 2026-05-04 13:11 | 25.91967 | 104.30302 | 37386 ft | 471 kts | 45° |
| 2026-05-04 13:12 | 25.96014 | 104.36037 | 37387 ft | 471 kts | 45° |
| 2026-05-04 13:12 | 26.00095 | 104.41787 | 37382 ft | 469 kts | 43° |
| 2026-05-04 13:13 | 26.04511 | 104.47052 | 37383 ft | 462 kts | 36° |
| 2026-05-04 13:13 | 26.09385 | 104.51733 | 37382 ft | 459 kts | 32° |
| 2026-05-04 13:14 | 26.14320 | 104.56275 | 37379 ft | 459 kts | 32° |
| 2026-05-04 13:14 | 26.19248 | 104.60836 | 37385 ft | 460 kts | 32° |
| 2026-05-04 13:15 | 26.24228 | 104.65465 | 37383 ft | 460 kts | 32° |
| 2026-05-04 13:15 | 26.29162 | 104.70060 | 37380 ft | 460 kts | 32° |
| 2026-05-04 13:16 | 26.34111 | 104.74673 | 37385 ft | 460 kts | 32° |
| 2026-05-04 13:16 | 26.39036 | 104.79271 | 37381 ft | 460 kts | 32° |
| 2026-05-04 13:17 | 26.43998 | 104.83908 | 37379 ft | 461 kts | 32° |
| 2026-05-04 13:17 | 26.49002 | 104.88587 | 37379 ft | 470 kts | 32° |
| 2026-05-04 13:18 | 26.54103 | 104.93366 | 37376 ft | 476 kts | 32° |
| 2026-05-04 13:18 | 26.59171 | 104.98304 | 37369 ft | 483 kts | 37° |
| 2026-05-04 13:19 | 26.63671 | 105.04016 | 37371 ft | 494 kts | 46° |
| 2026-05-04 13:19 | 26.67416 | 105.10648 | 37369 ft | 509 kts | 56° |
| 2026-05-04 13:20 | 26.70408 | 105.17863 | 37369 ft | 512 kts | 60° |
| 2026-05-04 13:20 | 26.73286 | 105.25168 | 37366 ft | 512 kts | 60° |
| 2026-05-04 13:21 | 26.76198 | 105.32505 | 37366 ft | 511 kts | 59° |
| 2026-05-04 13:21 | 26.79124 | 105.39830 | 37348 ft | 512 kts | 59° |
| 2026-05-04 13:22 | 26.82041 | 105.47134 | 37345 ft | 512 kts | 59° |
| 2026-05-04 13:22 | 26.84966 | 105.54470 | 37334 ft | 512 kts | 59° |
| 2026-05-04 13:23 | 26.87883 | 105.61799 | 37337 ft | 512 kts | 59° |
| 2026-05-04 13:23 | 26.90807 | 105.69162 | 37330 ft | 513 kts | 60° |
| 2026-05-04 13:24 | 26.93699 | 105.76459 | 37324 ft | 513 kts | 60° |
| 2026-05-04 13:24 | 26.96635 | 105.83877 | 37315 ft | 513 kts | 60° |
| 2026-05-04 13:25 | 27.00986 | 105.94897 | 37297 ft | 513 kts | 60° |
| 2026-05-04 13:25 | 27.03881 | 106.02228 | 37295 ft | 512 kts | 59° |
| 2026-05-04 13:26 | 27.07073 | 106.09395 | 37298 ft | 510 kts | 56° |
| 2026-05-04 13:26 | 27.10356 | 106.16528 | 37297 ft | 511 kts | 56° |
| 2026-05-04 13:27 | 27.13615 | 106.23649 | 37294 ft | 511 kts | 56° |
| 2026-05-04 13:27 | 27.16870 | 106.30796 | 37293 ft | 512 kts | 56° |
| 2026-05-04 13:28 | 27.20137 | 106.37986 | 37286 ft | 511 kts | 56° |
| 2026-05-04 13:28 | 27.23378 | 106.45116 | 37277 ft | 511 kts | 56° |
| 2026-05-04 13:29 | 27.26631 | 106.52286 | 37268 ft | 511 kts | 56° |
| 2026-05-04 13:29 | 27.29884 | 106.59463 | 37260 ft | 511 kts | 56° |
| 2026-05-04 13:30 | 27.33123 | 106.66626 | 37253 ft | 512 kts | 56° |
| 2026-05-04 13:30 | 27.36340 | 106.73760 | 37254 ft | 512 kts | 56° |
| 2026-05-04 13:31 | 27.39571 | 106.80950 | 37256 ft | 512 kts | 56° |
| 2026-05-04 13:31 | 27.42788 | 106.88142 | 37257 ft | 512 kts | 56° |
| 2026-05-04 13:32 | 27.46009 | 106.95355 | 37258 ft | 513 kts | 56° |
| 2026-05-04 13:32 | 27.49248 | 107.02583 | 37259 ft | 512 kts | 56° |
| 2026-05-04 13:33 | 27.52487 | 107.09730 | 37260 ft | 512 kts | 56° |
| 2026-05-04 13:33 | 27.55753 | 107.16954 | 37258 ft | 512 kts | 56° |
| 2026-05-04 13:34 | 27.58982 | 107.24113 | 37254 ft | 512 kts | 56° |
| 2026-05-04 13:34 | 27.62228 | 107.31313 | 37251 ft | 512 kts | 56° |
| 2026-05-04 13:35 | 27.67078 | 107.42098 | 37247 ft | 512 kts | 56° |
| 2026-05-04 13:36 | 27.70303 | 107.49286 | 37242 ft | 512 kts | 56° |
| 2026-05-04 13:36 | 27.73524 | 107.56480 | 37241 ft | 512 kts | 56° |
| 2026-05-04 13:37 | 27.76769 | 107.63737 | 37244 ft | 513 kts | 56° |
| 2026-05-04 13:37 | 27.79990 | 107.70957 | 37249 ft | 514 kts | 56° |
| 2026-05-04 13:38 | 27.83207 | 107.78181 | 37254 ft | 512 kts | 56° |
| 2026-05-04 13:38 | 27.86506 | 107.85403 | 37246 ft | 513 kts | 55° |
| 2026-05-04 13:39 | 27.89819 | 107.92627 | 37234 ft | 514 kts | 56° |
| 2026-05-04 13:39 | 27.93116 | 107.99853 | 37226 ft | 514 kts | 56° |
| 2026-05-04 13:40 | 27.96408 | 108.07084 | 37219 ft | 516 kts | 56° |
| 2026-05-04 13:40 | 27.99708 | 108.14350 | 37217 ft | 515 kts | 56° |
| 2026-05-04 13:41 | 28.02986 | 108.21583 | 37214 ft | 515 kts | 56° |
| 2026-05-04 13:41 | 28.06303 | 108.28908 | 37206 ft | 516 kts | 56° |
| 2026-05-04 13:42 | 28.11238 | 108.39841 | 37205 ft | 516 kts | 56° |
| 2026-05-04 13:42 | 28.14517 | 108.47115 | 37202 ft | 516 kts | 56° |
| 2026-05-04 13:43 | 28.17801 | 108.54419 | 37203 ft | 516 kts | 56° |
| 2026-05-04 13:43 | 28.21083 | 108.61729 | 37216 ft | 517 kts | 56° |
| 2026-05-04 13:44 | 28.24344 | 108.69009 | 37220 ft | 517 kts | 56° |
| 2026-05-04 13:44 | 28.27619 | 108.76330 | 37224 ft | 517 kts | 56° |
| 2026-05-04 13:45 | 28.30901 | 108.83678 | 37227 ft | 518 kts | 56° |
| 2026-05-04 13:45 | 28.34188 | 108.91048 | 37216 ft | 519 kts | 56° |
| 2026-05-04 13:46 | 28.37458 | 108.98404 | 37200 ft | 520 kts | 56° |
| 2026-05-04 13:46 | 28.40728 | 109.05774 | 37188 ft | 519 kts | 56° |
| 2026-05-04 13:47 | 28.44008 | 109.13173 | 37183 ft | 519 kts | 56° |
| 2026-05-04 13:47 | 28.47266 | 109.20542 | 37178 ft | 525 kts | 56° |
| 2026-05-04 13:48 | 28.50540 | 109.27975 | 37175 ft | 526 kts | 56° |
| 2026-05-04 13:48 | 28.53837 | 109.35481 | 37179 ft | 527 kts | 56° |
| 2026-05-04 13:49 | 28.57103 | 109.42947 | 37179 ft | 528 kts | 57° |
| 2026-05-04 13:49 | 28.60008 | 109.50698 | 37182 ft | 532 kts | 62° |
| 2026-05-04 13:50 | 28.62693 | 109.58627 | 37177 ft | 534 kts | 62° |
| 2026-05-04 13:50 | 28.65370 | 109.66513 | 37167 ft | 532 kts | 62° |
| 2026-05-04 13:51 | 28.68146 | 109.74310 | 37166 ft | 531 kts | 61° |
| 2026-05-04 13:51 | 28.70967 | 109.82106 | 37171 ft | 532 kts | 61° |
| 2026-05-04 13:52 | 28.75197 | 109.93908 | 37187 ft | 532 kts | 61° |
| 2026-05-04 13:53 | 28.77995 | 110.01747 | 37201 ft | 534 kts | 62° |
| 2026-05-04 13:53 | 28.80827 | 110.09714 | 37198 ft | 533 kts | 61° |
| 2026-05-04 13:54 | 28.85014 | 110.21508 | 37185 ft | 535 kts | 61° |
| 2026-05-04 13:55 | 28.89197 | 110.33340 | 37180 ft | 536 kts | 62° |
| 2026-05-04 13:55 | 28.93400 | 110.45260 | 37178 ft | 537 kts | 61° |
| 2026-05-04 13:56 | 28.96257 | 110.53384 | 37179 ft | 538 kts | 62° |
| 2026-05-04 13:57 | 29.00517 | 110.65536 | 37171 ft | 538 kts | 62° |
| 2026-05-04 13:58 | 29.06211 | 110.81713 | 37156 ft | 538 kts | 62° |
| 2026-05-04 13:58 | 29.10453 | 110.93679 | 37158 ft | 539 kts | 62° |
| 2026-05-04 13:59 | 29.13261 | 111.01625 | 37157 ft | 540 kts | 62° |
| 2026-05-04 14:00 | 29.17476 | 111.13612 | 37152 ft | 539 kts | 62° |
| 2026-05-04 14:00 | 29.21706 | 111.25678 | 37138 ft | 540 kts | 62° |
| 2026-05-04 14:01 | 29.24518 | 111.33713 | 37131 ft | 540 kts | 62° |
| 2026-05-04 14:02 | 29.28707 | 111.45727 | 37127 ft | 540 kts | 62° |
| 2026-05-04 14:02 | 29.31555 | 111.53924 | 37126 ft | 540 kts | 62° |
| 2026-05-04 14:03 | 29.34449 | 111.61983 | 37116 ft | 539 kts | 59° |
| 2026-05-04 14:03 | 29.37945 | 111.69479 | 37109 ft | 526 kts | 51° |
| 2026-05-04 14:04 | 29.43970 | 111.79988 | 37107 ft | 512 kts | 49° |
| 2026-05-04 14:04 | 29.47909 | 111.86816 | 37111 ft | 516 kts | 49° |
| 2026-05-04 14:05 | 29.53853 | 111.97209 | 37109 ft | 519 kts | 49° |
| 2026-05-04 14:06 | 29.57826 | 112.04195 | 37107 ft | 520 kts | 49° |
| 2026-05-04 14:06 | 29.61781 | 112.11159 | 37110 ft | 520 kts | 50° |
| 2026-05-04 14:07 | 29.65727 | 112.18127 | 37114 ft | 518 kts | 49° |
| 2026-05-04 14:07 | 29.69712 | 112.25159 | 37117 ft | 519 kts | 49° |
| 2026-05-04 14:08 | 29.73647 | 112.32130 | 37111 ft | 519 kts | 50° |
| 2026-05-04 14:08 | 29.77677 | 112.39300 | 37115 ft | 519 kts | 50° |
| 2026-05-04 14:09 | 29.83644 | 112.49966 | 37106 ft | 518 kts | 50° |
| 2026-05-04 14:10 | 29.89523 | 112.60499 | 37107 ft | 520 kts | 50° |
| 2026-05-04 14:10 | 29.93433 | 112.67520 | 37105 ft | 519 kts | 50° |
| 2026-05-04 14:11 | 29.97346 | 112.74562 | 37110 ft | 519 kts | 50° |
| 2026-05-04 14:11 | 30.03195 | 112.85107 | 37125 ft | 519 kts | 51° |
| 2026-05-04 14:12 | 30.07147 | 112.92245 | 37134 ft | 520 kts | 51° |
| 2026-05-04 14:13 | 30.13024 | 113.02887 | 37137 ft | 520 kts | 51° |
| 2026-05-04 14:13 | 30.16908 | 113.09940 | 37140 ft | 520 kts | 51° |
| 2026-05-04 14:14 | 30.20856 | 113.17118 | 37141 ft | 520 kts | 51° |
| 2026-05-04 14:14 | 30.26843 | 113.27831 | 37128 ft | 517 kts | 50° |
| 2026-05-04 14:15 | 30.34922 | 113.42227 | 37139 ft | 518 kts | 51° |
| 2026-05-04 14:16 | 30.40868 | 113.52882 | 37126 ft | 517 kts | 51° |
| 2026-05-04 14:17 | 30.46896 | 113.63711 | 37136 ft | 518 kts | 51° |
| 2026-05-04 14:18 | 30.52730 | 113.74252 | 37139 ft | 520 kts | 54° |
| 2026-05-04 14:18 | 30.55722 | 113.82030 | 37137 ft | 530 kts | 70° |
| 2026-05-04 14:19 | 30.56913 | 113.90483 | 37139 ft | 535 kts | 87° |
| 2026-05-04 14:19 | 30.56383 | 113.99081 | 37131 ft | 535 kts | 97° |
| 2026-05-04 14:20 | 30.55409 | 114.07887 | 37138 ft | 531 kts | 97° |
| 2026-05-04 14:20 | 30.54548 | 114.16590 | 37132 ft | 530 kts | 97° |
| 2026-05-04 14:21 | 30.53321 | 114.29504 | 37132 ft | 530 kts | 97° |
| 2026-05-04 14:21 | 30.52483 | 114.38016 | 37138 ft | 530 kts | 97° |
| 2026-05-04 14:22 | 30.51640 | 114.46584 | 37142 ft | 530 kts | 97° |
| 2026-05-04 14:22 | 30.50794 | 114.55118 | 37138 ft | 530 kts | 97° |
| 2026-05-04 14:23 | 30.49517 | 114.67904 | 37134 ft | 531 kts | 98° |
| 2026-05-04 14:24 | 30.48665 | 114.76375 | 37146 ft | 531 kts | 97° |
| 2026-05-04 14:24 | 30.47798 | 114.84907 | 37154 ft | 532 kts | 98° |
| 2026-05-04 14:25 | 30.46930 | 114.93427 | 37150 ft | 532 kts | 98° |
| 2026-05-04 14:25 | 30.45615 | 115.06226 | 37146 ft | 532 kts | 98° |
| 2026-05-04 14:26 | 30.44738 | 115.14689 | 37160 ft | 532 kts | 98° |
| 2026-05-04 14:26 | 30.43323 | 115.23105 | 37158 ft | 529 kts | 108° |
| 2026-05-04 14:27 | 30.40737 | 115.31022 | 37146 ft | 523 kts | 120° |
| 2026-05-04 14:27 | 30.37089 | 115.38275 | 37165 ft | 520 kts | 128° |
| 2026-05-04 14:28 | 30.33042 | 115.45349 | 37165 ft | 520 kts | 129° |
| 2026-05-04 14:28 | 30.28969 | 115.52501 | 37163 ft | 521 kts | 128° |
| 2026-05-04 14:29 | 30.20937 | 115.66739 | 37175 ft | 522 kts | 129° |
| 2026-05-04 14:30 | 30.16938 | 115.73826 | 37170 ft | 522 kts | 129° |
| 2026-05-04 14:31 | 30.10975 | 115.84367 | 37167 ft | 515 kts | 129° |
| 2026-05-04 14:32 | 30.03127 | 115.98190 | 37142 ft | 511 kts | 129° |
| 2026-05-04 14:32 | 29.99168 | 116.05146 | 37207 ft | 512 kts | 129° |
| 2026-05-04 14:33 | 29.95972 | 116.12664 | 37169 ft | 524 kts | 107° |
| 2026-05-04 14:33 | 29.95354 | 116.16819 | 37169 ft | 529 kts | 94° |
| 2026-05-04 14:33 | 29.95354 | 116.21104 | 37176 ft | 529 kts | 87° |
| 2026-05-04 14:34 | 29.95878 | 116.29768 | 37173 ft | 530 kts | 85° |
| 2026-05-04 14:34 | 29.96475 | 116.38236 | 37173 ft | 529 kts | 84° |
| 2026-05-04 14:35 | 29.97081 | 116.46864 | 37090 ft | 531 kts | 85° |
| 2026-05-04 14:35 | 29.97385 | 116.51159 | 36636 ft | 531 kts | 84° |
| 2026-05-04 14:35 | 29.97695 | 116.55470 | 36173 ft | 530 kts | 84° |
| 2026-05-04 14:35 | 29.97838 | 116.59817 | 35694 ft | 529 kts | 95° |
| 2026-05-04 14:36 | 29.97288 | 116.64062 | 35228 ft | 523 kts | 108° |
| 2026-05-04 14:36 | 29.96069 | 116.67985 | 34658 ft | 516 kts | 122° |
| 2026-05-04 14:36 | 29.94185 | 116.71561 | 34061 ft | 502 kts | 136° |
| 2026-05-04 14:36 | 29.91693 | 116.74603 | 33450 ft | 484 kts | 150° |
| 2026-05-04 14:37 | 29.88978 | 116.77085 | 32875 ft | 480 kts | 154° |
| 2026-05-04 14:37 | 29.86289 | 116.79359 | 32310 ft | 477 kts | 154° |
| 2026-05-04 14:37 | 29.83496 | 116.81662 | 31727 ft | 475 kts | 154° |
| 2026-05-04 14:37 | 29.80662 | 116.83960 | 31130 ft | 474 kts | 155° |
| 2026-05-04 14:38 | 29.77822 | 116.86234 | 30528 ft | 474 kts | 154° |
| 2026-05-04 14:38 | 29.75025 | 116.88443 | 29918 ft | 475 kts | 155° |
| 2026-05-04 14:38 | 29.72051 | 116.90771 | 29254 ft | 475 kts | 154° |
| 2026-05-04 14:38 | 29.69242 | 116.92949 | 28600 ft | 476 kts | 154° |
| 2026-05-04 14:39 | 29.66272 | 116.95049 | 27919 ft | 468 kts | 162° |
| 2026-05-04 14:39 | 29.63249 | 116.96347 | 27278 ft | 454 kts | 174° |
| 2026-05-04 14:39 | 29.60082 | 116.96862 | 26621 ft | 441 kts | 187° |
| 2026-05-04 14:40 | 29.54055 | 116.95451 | 25320 ft | 422 kts | 210° |
| 2026-05-04 14:40 | 29.51361 | 116.93900 | 24829 ft | 422 kts | 214° |
| 2026-05-04 14:40 | 29.48635 | 116.92187 | 24553 ft | 423 kts | 214° |
| 2026-05-04 14:40 | 29.45911 | 116.90428 | 24065 ft | 426 kts | 214° |
| 2026-05-04 14:41 | 29.43216 | 116.88673 | 23553 ft | 429 kts | 215° |
| 2026-05-04 14:41 | 29.40562 | 116.86929 | 23049 ft | 431 kts | 214° |
| 2026-05-04 14:41 | 29.34995 | 116.83229 | 22780 ft | 434 kts | 215° |
| 2026-05-04 14:42 | 29.29489 | 116.79546 | 22775 ft | 435 kts | 215° |
| 2026-05-04 14:42 | 29.26668 | 116.77661 | 22771 ft | 434 kts | 215° |
| 2026-05-04 14:42 | 29.23882 | 116.75804 | 22778 ft | 435 kts | 215° |
| 2026-05-04 14:43 | 29.21055 | 116.74036 | 22756 ft | 439 kts | 209° |
| 2026-05-04 14:43 | 29.17908 | 116.72923 | 22761 ft | 448 kts | 196° |
| 2026-05-04 14:43 | 29.14508 | 116.72662 | 22767 ft | 458 kts | 183° |
| 2026-05-04 14:43 | 29.11147 | 116.73278 | 22769 ft | 469 kts | 170° |
| 2026-05-04 14:44 | 29.08004 | 116.74690 | 22763 ft | 479 kts | 158° |
| 2026-05-04 14:44 | 29.05004 | 116.76969 | 22772 ft | 487 kts | 145° |
| 2026-05-04 14:44 | 29.02513 | 116.79909 | 22766 ft | 476 kts | 132° |
| 2026-05-04 14:44 | 29.00733 | 116.83284 | 22764 ft | 464 kts | 117° |
| 2026-05-04 14:45 | 28.99751 | 116.86938 | 22772 ft | 467 kts | 102° |
| 2026-05-04 14:45 | 28.99579 | 116.90923 | 22763 ft | 470 kts | 86° |
| 2026-05-04 14:45 | 29.00225 | 116.94628 | 22765 ft | 470 kts | 70° |
| 2026-05-04 14:45 | 29.01592 | 116.98055 | 22771 ft | 467 kts | 58° |
| 2026-05-04 14:46 | 29.03264 | 117.01253 | 22769 ft | 467 kts | 56° |
| 2026-05-04 14:46 | 29.05019 | 117.04446 | 22771 ft | 466 kts | 55° |
| 2026-05-04 14:46 | 29.06791 | 117.07644 | 22761 ft | 466 kts | 55° |
| 2026-05-04 14:46 | 29.08539 | 117.10799 | 22770 ft | 465 kts | 54° |
| 2026-05-04 14:47 | 29.10280 | 117.13947 | 22771 ft | 465 kts | 54° |
| 2026-05-04 14:47 | 29.12049 | 117.17134 | 22772 ft | 465 kts | 55° |
| 2026-05-04 14:47 | 29.13786 | 117.20268 | 22777 ft | 465 kts | 54° |
| 2026-05-04 14:47 | 29.15599 | 117.23408 | 22772 ft | 465 kts | 53° |
| 2026-05-04 14:48 | 29.17405 | 117.26489 | 22775 ft | 465 kts | 53° |
| 2026-05-04 14:48 | 29.19223 | 117.29600 | 22786 ft | 465 kts | 53° |
| 2026-05-04 14:48 | 29.21055 | 117.32748 | 22796 ft | 464 kts | 53° |
| 2026-05-04 14:48 | 29.22855 | 117.35857 | 22794 ft | 464 kts | 53° |
| 2026-05-04 14:49 | 29.24654 | 117.38973 | 22798 ft | 464 kts | 54° |
| 2026-05-04 14:49 | 29.26464 | 117.42116 | 22800 ft | 464 kts | 54° |
| 2026-05-04 14:49 | 29.28277 | 117.45270 | 22798 ft | 463 kts | 53° |
| 2026-05-04 14:49 | 29.30061 | 117.48376 | 22799 ft | 463 kts | 54° |
| 2026-05-04 14:50 | 29.31844 | 117.51481 | 22803 ft | 463 kts | 54° |
| 2026-05-04 14:50 | 29.33631 | 117.54598 | 22710 ft | 462 kts | 54° |
| 2026-05-04 14:50 | 29.35414 | 117.57710 | 22350 ft | 459 kts | 54° |
| 2026-05-04 14:50 | 29.37159 | 117.60757 | 21985 ft | 454 kts | 54° |
| 2026-05-04 14:51 | 29.38892 | 117.63785 | 21808 ft | 450 kts | 54° |
| 2026-05-04 14:51 | 29.40718 | 117.66773 | 21794 ft | 448 kts | 47° |
| 2026-05-04 14:51 | 29.43045 | 117.69212 | 21801 ft | 441 kts | 31° |
| 2026-05-04 14:51 | 29.45733 | 117.70830 | 21804 ft | 432 kts | 15° |
| 2026-05-04 14:52 | 29.48626 | 117.71584 | 21803 ft | 423 kts | 360° |
| 2026-05-04 14:52 | 29.51590 | 117.71428 | 21805 ft | 411 kts | 343° |
| 2026-05-04 14:52 | 29.54285 | 117.70391 | 21808 ft | 401 kts | 328° |
| 2026-05-04 14:52 | 29.56564 | 117.68576 | 21813 ft | 391 kts | 312° |
| 2026-05-04 14:53 | 29.58416 | 117.66260 | 21827 ft | 388 kts | 306° |
| 2026-05-04 14:53 | 29.60147 | 117.63835 | 21813 ft | 387 kts | 305° |
| 2026-05-04 14:53 | 29.61871 | 117.61360 | 21813 ft | 387 kts | 305° |
| 2026-05-04 14:53 | 29.63545 | 117.58939 | 21810 ft | 386 kts | 304° |
| 2026-05-04 14:54 | 29.65252 | 117.56471 | 21805 ft | 386 kts | 304° |
| 2026-05-04 14:54 | 29.66948 | 117.54022 | 21808 ft | 387 kts | 305° |
| 2026-05-04 14:54 | 29.68665 | 117.51531 | 21806 ft | 387 kts | 305° |
| 2026-05-04 14:54 | 29.70340 | 117.49078 | 21800 ft | 386 kts | 302° |
| 2026-05-04 14:55 | 29.71616 | 117.46354 | 21792 ft | 380 kts | 287° |
| 2026-05-04 14:55 | 29.72122 | 117.43384 | 21804 ft | 377 kts | 271° |
| 2026-05-04 14:55 | 29.71832 | 117.40369 | 21796 ft | 377 kts | 256° |
| 2026-05-04 14:55 | 29.70763 | 117.37579 | 21798 ft | 381 kts | 240° |
| 2026-05-04 14:56 | 29.68977 | 117.35225 | 21799 ft | 387 kts | 224° |
| 2026-05-04 14:56 | 29.66662 | 117.33566 | 21801 ft | 395 kts | 208° |
| 2026-05-04 14:56 | 29.63890 | 117.32694 | 21791 ft | 405 kts | 192° |
| 2026-05-04 14:56 | 29.61006 | 117.32748 | 21794 ft | 416 kts | 176° |
| 2026-05-04 14:57 | 29.58133 | 117.33736 | 21794 ft | 426 kts | 160° |
| 2026-05-04 14:57 | 29.55513 | 117.35576 | 21449 ft | 434 kts | 145° |
| 2026-05-04 14:57 | 29.53364 | 117.38175 | 20943 ft | 436 kts | 128° |
| 2026-05-04 14:57 | 29.51940 | 117.41240 | 20432 ft | 437 kts | 110° |
| 2026-05-04 14:58 | 29.51422 | 117.44710 | 19962 ft | 435 kts | 89° |
| 2026-05-04 14:58 | 29.51977 | 117.48257 | 19803 ft | 431 kts | 71° |
| 2026-05-04 14:58 | 29.52943 | 117.51568 | 19794 ft | 432 kts | 70° |
| 2026-05-04 14:58 | 29.53924 | 117.54862 | 19791 ft | 432 kts | 70° |
| 2026-05-04 14:59 | 29.54914 | 117.58226 | 19794 ft | 432 kts | 70° |
| 2026-05-04 14:59 | 29.55880 | 117.61562 | 19800 ft | 432 kts | 70° |
| 2026-05-04 14:59 | 29.57767 | 117.68162 | 19789 ft | 432 kts | 71° |
| 2026-05-04 15:00 | 29.58717 | 117.71509 | 19802 ft | 433 kts | 71° |
| 2026-05-04 15:00 | 29.59645 | 117.74789 | 19810 ft | 432 kts | 71° |
| 2026-05-04 15:00 | 29.60576 | 117.78088 | 19808 ft | 431 kts | 71° |
| 2026-05-04 15:01 | 29.62463 | 117.84779 | 19810 ft | 432 kts | 71° |
| 2026-05-04 15:01 | 29.63394 | 117.88088 | 19809 ft | 432 kts | 71° |
| 2026-05-04 15:01 | 29.64329 | 117.91412 | 19810 ft | 432 kts | 71° |
| 2026-05-04 15:01 | 29.65271 | 117.94770 | 19812 ft | 433 kts | 71° |
| 2026-05-04 15:02 | 29.66211 | 117.98121 | 19816 ft | 433 kts | 71° |
| 2026-05-04 15:02 | 29.67149 | 118.01470 | 19812 ft | 433 kts | 71° |
| 2026-05-04 15:02 | 29.68095 | 118.04853 | 19538 ft | 432 kts | 71° |
| 2026-05-04 15:02 | 29.68998 | 118.08092 | 19154 ft | 427 kts | 71° |
| 2026-05-04 15:03 | 29.69909 | 118.11359 | 18753 ft | 424 kts | 71° |
| 2026-05-04 15:03 | 29.70817 | 118.14621 | 18364 ft | 420 kts | 71° |
| 2026-05-04 15:03 | 29.71716 | 118.17847 | 17966 ft | 416 kts | 70° |
| 2026-05-04 15:03 | 29.72606 | 118.21044 | 17568 ft | 413 kts | 71° |
| 2026-05-04 15:04 | 29.73377 | 118.24295 | 17164 ft | 410 kts | 78° |
| 2026-05-04 15:04 | 29.73619 | 118.27610 | 16768 ft | 408 kts | 90° |
| 2026-05-04 15:04 | 29.73407 | 118.30925 | 16378 ft | 399 kts | 95° |
| 2026-05-04 15:04 | 29.73103 | 118.34093 | 15995 ft | 391 kts | 96° |
| 2026-05-04 15:05 | 29.72793 | 118.37187 | 15828 ft | 377 kts | 96° |
| 2026-05-04 15:05 | 29.72504 | 118.40145 | 15826 ft | 373 kts | 96° |
| 2026-05-04 15:05 | 29.72221 | 118.43140 | 15825 ft | 373 kts | 96° |
| 2026-05-04 15:05 | 29.71941 | 118.46156 | 15825 ft | 373 kts | 96° |
| 2026-05-04 15:06 | 29.71668 | 118.49125 | 15835 ft | 373 kts | 96° |
| 2026-05-04 15:06 | 29.71393 | 118.52132 | 15835 ft | 373 kts | 96° |
| 2026-05-04 15:06 | 29.71123 | 118.55090 | 15829 ft | 374 kts | 96° |
| 2026-05-04 15:07 | 29.70573 | 118.61095 | 15829 ft | 373 kts | 96° |
| 2026-05-04 15:07 | 29.70297 | 118.64095 | 15821 ft | 373 kts | 95° |
| 2026-05-04 15:07 | 29.70023 | 118.67052 | 15821 ft | 374 kts | 96° |
| 2026-05-04 15:07 | 29.69748 | 118.70031 | 15825 ft | 374 kts | 96° |
| 2026-05-04 15:08 | 29.69473 | 118.73024 | 15821 ft | 373 kts | 96° |
| 2026-05-04 15:08 | 29.69202 | 118.76006 | 15821 ft | 373 kts | 96° |
| 2026-05-04 15:08 | 29.68935 | 118.78963 | 15815 ft | 373 kts | 96° |
| 2026-05-04 15:08 | 29.68664 | 118.81953 | 15735 ft | 373 kts | 96° |
| 2026-05-04 15:09 | 29.68397 | 118.84888 | 15442 ft | 365 kts | 96° |
| 2026-05-04 15:09 | 29.68134 | 118.87776 | 15106 ft | 358 kts | 96° |
| 2026-05-04 15:09 | 29.67876 | 118.90593 | 14748 ft | 352 kts | 96° |
| 2026-05-04 15:10 | 29.67368 | 118.96137 | 14017 ft | 344 kts | 96° |
| 2026-05-04 15:10 | 29.67118 | 118.98868 | 13647 ft | 340 kts | 96° |
| 2026-05-04 15:10 | 29.66624 | 119.04206 | 12920 ft | 330 kts | 96° |
| 2026-05-04 15:11 | 29.66383 | 119.06804 | 12558 ft | 326 kts | 96° |
| 2026-05-04 15:11 | 29.66139 | 119.09429 | 12186 ft | 322 kts | 95° |
| 2026-05-04 15:11 | 29.65899 | 119.11999 | 11874 ft | 316 kts | 95° |
| 2026-05-04 15:11 | 29.65665 | 119.14510 | 11819 ft | 311 kts | 95° |
| 2026-05-04 15:12 | 29.65438 | 119.16969 | 11817 ft | 305 kts | 95° |
| 2026-05-04 15:12 | 29.65221 | 119.19406 | 11818 ft | 304 kts | 95° |
| 2026-05-04 15:12 | 29.65010 | 119.21809 | 11820 ft | 304 kts | 95° |
| 2026-05-04 15:12 | 29.64794 | 119.24261 | 11820 ft | 304 kts | 95° |
| 2026-05-04 15:13 | 29.64581 | 119.26660 | 11822 ft | 304 kts | 95° |
| 2026-05-04 15:13 | 29.64364 | 119.29092 | 11822 ft | 304 kts | 95° |
| 2026-05-04 15:13 | 29.64158 | 119.31500 | 11821 ft | 304 kts | 94° |
| 2026-05-04 15:13 | 29.64009 | 119.33944 | 11822 ft | 304 kts | 93° |
| 2026-05-04 15:14 | 29.63871 | 119.36381 | 11820 ft | 304 kts | 93° |
| 2026-05-04 15:14 | 29.63734 | 119.38813 | 11820 ft | 305 kts | 93° |
| 2026-05-04 15:14 | 29.63596 | 119.41241 | 11820 ft | 305 kts | 93° |
| 2026-05-04 15:14 | 29.63457 | 119.43668 | 11821 ft | 304 kts | 93° |
| 2026-05-04 15:15 | 29.63315 | 119.46118 | 11819 ft | 305 kts | 92° |
| 2026-05-04 15:15 | 29.63177 | 119.48548 | 11818 ft | 305 kts | 92° |
| 2026-05-04 15:15 | 29.63096 | 119.50987 | 11818 ft | 304 kts | 90° |
| 2026-05-04 15:16 | 29.62973 | 119.55847 | 11815 ft | 304 kts | 90° |
| 2026-05-04 15:16 | 29.62911 | 119.58273 | 11814 ft | 304 kts | 90° |
| 2026-05-04 15:16 | 29.62926 | 119.63122 | 11813 ft | 303 kts | 79° |
| 2026-05-04 15:17 | 29.63484 | 119.65474 | 11816 ft | 302 kts | 66° |
| 2026-05-04 15:17 | 29.65782 | 119.69492 | 11825 ft | 301 kts | 50° |
| 2026-05-04 15:17 | 29.67127 | 119.71364 | 11822 ft | 301 kts | 49° |
| 2026-05-04 15:18 | 29.68466 | 119.73221 | 11829 ft | 300 kts | 49° |
| 2026-05-04 15:18 | 29.69799 | 119.75084 | 11830 ft | 300 kts | 49° |
| 2026-05-04 15:18 | 29.71133 | 119.76960 | 11832 ft | 301 kts | 50° |
| 2026-05-04 15:19 | 29.73780 | 119.80705 | 11834 ft | 300 kts | 50° |
| 2026-05-04 15:19 | 29.75088 | 119.82564 | 11822 ft | 293 kts | 49° |
| 2026-05-04 15:19 | 29.77649 | 119.86205 | 11470 ft | 288 kts | 50° |
| 2026-05-04 15:20 | 29.78910 | 119.87997 | 11162 ft | 286 kts | 50° |
| 2026-05-04 15:20 | 29.80157 | 119.89773 | 10804 ft | 284 kts | 50° |
| 2026-05-04 15:20 | 29.81394 | 119.91535 | 10443 ft | 283 kts | 50° |
| 2026-05-04 15:20 | 29.82627 | 119.93291 | 10081 ft | 278 kts | 50° |
| 2026-05-04 15:21 | 29.83817 | 119.95017 | 9648 ft | 269 kts | 51° |
| 2026-05-04 15:21 | 29.84888 | 119.96744 | 9161 ft | 262 kts | 54° |
| 2026-05-04 15:21 | 29.86737 | 120.00322 | 8186 ft | 257 kts | 59° |
| 2026-05-04 15:22 | 29.87591 | 120.02121 | 7923 ft | 255 kts | 60° |
| 2026-05-04 15:22 | 29.88459 | 120.03952 | 7905 ft | 264 kts | 60° |
| 2026-05-04 15:22 | 29.90243 | 120.07716 | 7905 ft | 266 kts | 60° |
| 2026-05-04 15:23 | 29.91133 | 120.09593 | 7719 ft | 268 kts | 60° |
| 2026-05-04 15:23 | 29.92028 | 120.11481 | 7329 ft | 268 kts | 60° |
| 2026-05-04 15:23 | 29.92930 | 120.13384 | 6928 ft | 268 kts | 60° |
| 2026-05-04 15:23 | 29.93822 | 120.15269 | 6561 ft | 266 kts | 60° |
| 2026-05-04 15:24 | 29.95570 | 120.18961 | 5976 ft | 258 kts | 60° |
| 2026-05-04 15:24 | 29.97246 | 120.22510 | 5890 ft | 250 kts | 60° |
| 2026-05-04 15:25 | 29.98089 | 120.24296 | 5881 ft | 249 kts | 60° |
| 2026-05-04 15:25 | 29.98915 | 120.26044 | 5886 ft | 249 kts | 60° |
| 2026-05-04 15:25 | 29.99743 | 120.27801 | 5895 ft | 249 kts | 61° |
| 2026-05-04 15:26 | 30.01347 | 120.31381 | 5886 ft | 257 kts | 62° |
| 2026-05-04 15:26 | 30.02176 | 120.33248 | 5888 ft | 260 kts | 62° |
| 2026-05-04 15:26 | 30.03837 | 120.36980 | 5871 ft | 261 kts | 62° |
| 2026-05-04 15:27 | 30.04666 | 120.38842 | 5732 ft | 262 kts | 62° |
| 2026-05-04 15:27 | 30.06325 | 120.42570 | 5130 ft | 259 kts | 62° |
| 2026-05-04 15:28 | 30.07987 | 120.46304 | 4896 ft | 259 kts | 62° |
| 2026-05-04 15:28 | 30.08811 | 120.48156 | 4901 ft | 259 kts | 62° |
| 2026-05-04 15:28 | 30.10471 | 120.51898 | 4878 ft | 259 kts | 62° |
| 2026-05-04 15:29 | 30.11280 | 120.53723 | 4876 ft | 250 kts | 62° |
| 2026-05-04 15:30 | 30.14459 | 120.60897 | 4158 ft | 249 kts | 63° |
| 2026-05-04 15:30 | 30.16718 | 120.66004 | 2915 ft | 232 kts | 64° |
| 2026-05-04 15:31 | 30.18609 | 120.69031 | 1919 ft | 230 kts | 27° |
| 2026-05-04 15:31 | 30.20120 | 120.69378 | 1867 ft | 214 kts | 351° |
| 2026-05-04 15:32 | 30.23823 | 120.67668 | 1881 ft | 165 kts | 334° |
| 2026-05-04 15:32 | 30.25932 | 120.66528 | 1888 ft | 162 kts | 334° |
| 2026-05-04 15:33 | 30.27928 | 120.65458 | 1872 ft | 154 kts | 334° |
| 2026-05-04 15:34 | 30.29260 | 120.62574 | 1871 ft | 134 kts | 274° |
| 2026-05-04 15:34 | 30.29382 | 120.61510 | 1876 ft | 133 kts | 274° |
| 2026-05-04 15:34 | 30.29575 | 120.59379 | 1876 ft | 131 kts | 260° |
| 2026-05-04 15:35 | 30.29018 | 120.57352 | 1892 ft | 131 kts | 244° |
| 2026-05-04 15:35 | 30.28651 | 120.56372 | 1891 ft | 131 kts | 242° |
| 2026-05-04 15:35 | 30.28262 | 120.55420 | 1888 ft | 131 kts | 241° |
| 2026-05-04 15:36 | 30.27433 | 120.53513 | 1599 ft | 130 kts | 240° |
| 2026-05-04 15:36 | 30.27016 | 120.52576 | 1427 ft | 130 kts | 240° |
| 2026-05-04 15:36 | 30.26598 | 120.51639 | 1255 ft | 130 kts | 240° |
| 2026-05-04 15:37 | 30.26183 | 120.50708 | 1085 ft | 130 kts | 240° |
| 2026-05-04 15:37 | 30.25770 | 120.49781 | 914 ft | 129 kts | 240° |
| 2026-05-04 15:37 | 30.25356 | 120.48851 | 742 ft | 129 kts | 240° |
| 2026-05-04 15:37 | 30.24950 | 120.47936 | 575 ft | 129 kts | 241° |
| 2026-05-04 15:38 | 30.24536 | 120.47006 | 406 ft | 129 kts | 241° |
| 2026-05-04 15:38 | 30.24123 | 120.46077 | 238 ft | 129 kts | 242° |
| 2026-05-04 15:38 | 30.23712 | 120.45151 | 68 ft | 129 kts | 242° |
| 2026-05-04 15:38 | 30.23334 | 120.44309 | 29 ft | 94 kts | 243° |
| 2026-05-04 15:39 | 30.23170 | 120.43938 | 29 ft | 21 kts | 243° |
| 2026-05-04 15:39 | 30.23103 | 120.43787 | 29 ft | 20 kts | 242° |
| 2026-05-04 15:39 | 30.22959 | 120.43497 | 29 ft | 20 kts | 238° |
| 2026-05-04 15:40 | 30.22922 | 120.43371 | 29 ft | 14 kts | 244° |
| 2026-05-04 15:40 | 30.22884 | 120.43259 | 29 ft | 15 kts | 256° |
| 2026-05-04 15:40 | 30.22871 | 120.43137 | 29 ft | 15 kts | 269° |
| 2026-05-04 15:40 | 30.22874 | 120.43005 | 29 ft | 14 kts | 279° |
| 2026-05-04 15:41 | 30.22882 | 120.42993 | 29 ft | 0 kts | 329° |
| 2026-05-04 15:41 | 30.22885 | 120.42991 | 29 ft | 1 kts | 329° |
| 2026-05-04 15:41 | 30.22900 | 120.42980 | 29 ft | 3 kts | 329° |
| 2026-05-04 15:41 | 30.22928 | 120.42962 | 29 ft | 5 kts | 331° |
| 2026-05-04 15:42 | 30.22968 | 120.42936 | 29 ft | 7 kts | 331° |
| 2026-05-04 15:42 | 30.23019 | 120.42921 | 29 ft | 8 kts | 19° |
| 2026-05-04 15:42 | 30.23082 | 120.42946 | 29 ft | 10 kts | 19° |
| 2026-05-04 15:42 | 30.23156 | 120.42976 | 29 ft | 11 kts | 26° |
| 2026-05-04 15:43 | 30.23186 | 120.43060 | 29 ft | 12 kts | 85° |
| 2026-05-04 15:43 | 30.23193 | 120.43163 | 29 ft | 12 kts | 67° |
| 2026-05-04 15:43 | 30.23237 | 120.43259 | 29 ft | 14 kts | 63° |
| 2026-05-04 15:43 | 30.23283 | 120.43363 | 29 ft | 14 kts | 64° |
| 2026-05-04 15:44 | 30.23329 | 120.43475 | 29 ft | 15 kts | 65° |
| 2026-05-04 15:44 | 30.23375 | 120.43592 | 29 ft | 16 kts | 66° |
| 2026-05-04 15:44 | 30.23417 | 120.43703 | 29 ft | 12 kts | 67° |
| 2026-05-04 15:44 | 30.23471 | 120.43783 | 29 ft | 12 kts | 65° |
| 2026-05-04 15:45 | 30.23510 | 120.43883 | 29 ft | 14 kts | 66° |
| 2026-05-04 15:45 | 30.23544 | 120.43972 | 29 ft | 9 kts | 67° |
| 2026-05-04 15:45 | 30.23573 | 120.44019 | 29 ft | 4 kts | 342° |
| 2026-05-04 15:45 | 30.23615 | 120.43989 | 29 ft | 7 kts | 333° |
| 2026-05-04 15:46 | 30.23671 | 120.43956 | 29 ft | 9 kts | 333° |
| 2026-05-04 15:46 | 30.23737 | 120.43917 | 29 ft | 11 kts | 333° |
| 2026-05-04 15:46 | 30.23783 | 120.43849 | 29 ft | 12 kts | 263° |
| 2026-05-04 15:46 | 30.23814 | 120.43766 | 29 ft | 12 kts | 332° |
| 2026-05-04 15:47 | 30.23886 | 120.43723 | 29 ft | 8 kts | 333° |
| 2026-05-04 15:47 | 30.23947 | 120.43687 | 29 ft | 10 kts | 333° |
| 2026-05-04 15:47 | 30.24019 | 120.43645 | 29 ft | 12 kts | 333° |
| 2026-05-04 15:47 | 30.24097 | 120.43597 | 29 ft | 13 kts | 333° |
| 2026-05-04 15:48 | 30.24188 | 120.43544 | 29 ft | 14 kts | 333° |
| 2026-05-04 15:48 | 30.24283 | 120.43488 | 29 ft | 15 kts | 333° |
| 2026-05-04 15:48 | 30.24484 | 120.43372 | 29 ft | 12 kts | 333° |
| 2026-05-04 15:49 | 30.24535 | 120.43319 | 29 ft | 8 kts | 277° |
| 2026-05-04 15:49 | 30.24490 | 120.43266 | 29 ft | 10 kts | 225° |
| 2026-05-04 15:49 | 30.24456 | 120.43192 | 29 ft | 11 kts | 257° |
| 2026-05-04 15:49 | 30.24441 | 120.43096 | 29 ft | 12 kts | 263° |
| 2026-05-04 15:50 | 30.24407 | 120.43000 | 29 ft | 13 kts | 235° |
| 2026-05-04 15:50 | 30.24356 | 120.42907 | 29 ft | 14 kts | 245° |
| 2026-05-04 15:50 | 30.24316 | 120.42819 | 29 ft | 11 kts | 237° |
| 2026-05-04 15:50 | 30.24272 | 120.42733 | 29 ft | 12 kts | 245° |
| 2026-05-04 15:51 | 30.24240 | 120.42675 | 29 ft | 7 kts | 207° |
| 2026-05-04 15:51 | 30.24187 | 120.42683 | 29 ft | 7 kts | 162° |
| 2026-05-04 15:51 | 30.24154 | 120.42696 | 29 ft | 4 kts | 163° |
| 2026-05-04 15:51 | 30.24142 | 120.42700 | 29 ft | 0 kts | 163° |